sensor_id;sensor_type;location;lat;lon;timestamp;P1;durP1;ratioP1;P2;durP2;ratioP2
66874;SDS011;53784;52.630;4.896;2023-02-15T00:01:17;56.75;;;18.88;;
66874;SDS011;53784;52.630;4.896;2023-02-15T00:03:42;57.60;;;18.77;;
66874;SDS011;53784;52.630;4.896;2023-02-15T00:06:07;55.42;;;17.88;;
66874;SDS011;53784;52.630;4.896;2023-02-15T00:08:32;45.67;;;17.83;;
66874;SDS011;53784;52.630;4.896;2023-02-15T00:11:07;49.60;;;18.17;;
66874;SDS011;53784;52.630;4.896;2023-02-15T00:13:33;52.22;;;17.90;;
66874;SDS011;53784;52.630;4.896;2023-02-15T00:16:03;54.33;;;18.98;;
66874;SDS011;53784;52.630;4.896;2023-02-15T00:18:29;49.90;;;18.08;;
66874;SDS011;53784;52.630;4.896;2023-02-15T00:20:54;53.95;;;18.52;;
66874;SDS011;53784;52.630;4.896;2023-02-15T00:23:19;46.15;;;18.33;;
66874;SDS011;53784;52.630;4.896;2023-02-15T00:25:45;42.73;;;18.00;;
66874;SDS011;53784;52.630;4.896;2023-02-15T00:28:10;49.63;;;19.05;;
66874;SDS011;53784;52.630;4.896;2023-02-15T00:30:35;55.10;;;18.40;;
66874;SDS011;53784;52.630;4.896;2023-02-15T00:33:00;40.60;;;18.10;;
66874;SDS011;53784;52.630;4.896;2023-02-15T00:35:25;52.10;;;18.63;;
66874;SDS011;53784;52.630;4.896;2023-02-15T00:37:50;55.50;;;19.47;;
66874;SDS011;53784;52.630;4.896;2023-02-15T00:40:17;41.17;;;18.13;;
66874;SDS011;53784;52.630;4.896;2023-02-15T00:42:42;62.55;;;18.80;;
66874;SDS011;53784;52.630;4.896;2023-02-15T00:45:07;42.53;;;18.42;;
66874;SDS011;53784;52.630;4.896;2023-02-15T00:47:33;47.35;;;16.65;;
66874;SDS011;53784;52.630;4.896;2023-02-15T00:49:58;60.07;;;18.33;;
66874;SDS011;53784;52.630;4.896;2023-02-15T00:52:23;53.83;;;18.15;;
66874;SDS011;53784;52.630;4.896;2023-02-15T00:54:48;50.17;;;17.30;;
66874;SDS011;53784;52.630;4.896;2023-02-15T00:57:14;61.38;;;17.52;;
66874;SDS011;53784;52.630;4.896;2023-02-15T00:59:39;43.90;;;16.70;;
66874;SDS011;53784;52.630;4.896;2023-02-15T01:02:04;49.22;;;17.27;;
66874;SDS011;53784;52.630;4.896;2023-02-15T01:04:29;54.20;;;17.10;;
66874;SDS011;53784;52.630;4.896;2023-02-15T01:06:54;70.70;;;17.47;;
66874;SDS011;53784;52.630;4.896;2023-02-15T01:09:19;51.50;;;16.70;;
66874;SDS011;53784;52.630;4.896;2023-02-15T01:11:45;58.83;;;17.35;;
66874;SDS011;53784;52.630;4.896;2023-02-15T01:14:10;60.17;;;17.92;;
66874;SDS011;53784;52.630;4.896;2023-02-15T01:16:35;50.08;;;16.85;;
66874;SDS011;53784;52.630;4.896;2023-02-15T01:19:01;80.57;;;17.63;;
66874;SDS011;53784;52.630;4.896;2023-02-15T01:21:27;60.35;;;16.95;;
66874;SDS011;53784;52.630;4.896;2023-02-15T01:23:53;64.05;;;17.33;;
66874;SDS011;53784;52.630;4.896;2023-02-15T01:26:19;48.42;;;17.25;;
66874;SDS011;53784;52.630;4.896;2023-02-15T01:28:45;56.80;;;17.73;;
66874;SDS011;53784;52.630;4.896;2023-02-15T01:31:11;64.32;;;17.35;;
66874;SDS011;53784;52.630;4.896;2023-02-15T01:33:37;46.10;;;16.95;;
66874;SDS011;53784;52.630;4.896;2023-02-15T01:36:02;48.97;;;16.85;;
66874;SDS011;53784;52.630;4.896;2023-02-15T01:38:28;50.47;;;16.23;;
66874;SDS011;53784;52.630;4.896;2023-02-15T01:40:53;57.10;;;17.60;;
66874;SDS011;53784;52.630;4.896;2023-02-15T01:43:43;50.50;;;15.98;;
66874;SDS011;53784;52.630;4.896;2023-02-15T01:46:09;63.88;;;16.80;;
66874;SDS011;53784;52.630;4.896;2023-02-15T01:48:34;50.60;;;17.33;;
66874;SDS011;53784;52.630;4.896;2023-02-15T01:51:01;47.38;;;16.90;;
66874;SDS011;53784;52.630;4.896;2023-02-15T01:53:28;48.03;;;16.38;;
66874;SDS011;53784;52.630;4.896;2023-02-15T01:56:10;56.35;;;16.52;;
66874;SDS011;53784;52.630;4.896;2023-02-15T01:58:36;58.13;;;16.67;;
66874;SDS011;53784;52.630;4.896;2023-02-15T02:01:02;59.25;;;17.17;;
66874;SDS011;53784;52.630;4.896;2023-02-15T02:06:06;41.30;;;16.65;;
66874;SDS011;53784;52.630;4.896;2023-02-15T02:08:32;49.63;;;17.35;;
66874;SDS011;53784;52.630;4.896;2023-02-15T02:10:57;56.17;;;16.75;;
66874;SDS011;53784;52.630;4.896;2023-02-15T02:13:22;47.73;;;16.47;;
66874;SDS011;53784;52.630;4.896;2023-02-15T02:18:53;53.53;;;15.93;;
66874;SDS011;53784;52.630;4.896;2023-02-15T02:34:09;86.35;;;17.33;;
66874;SDS011;53784;52.630;4.896;2023-02-15T02:39:11;57.47;;;16.65;;
66874;SDS011;53784;52.630;4.896;2023-02-15T02:46:46;63.10;;;16.75;;
66874;SDS011;53784;52.630;4.896;2023-02-15T02:49:12;56.20;;;15.85;;
66874;SDS011;53784;52.630;4.896;2023-02-15T02:51:37;54.33;;;16.58;;
66874;SDS011;53784;52.630;4.896;2023-02-15T02:54:03;82.20;;;15.80;;
66874;SDS011;53784;52.630;4.896;2023-02-15T02:56:32;75.88;;;16.48;;
66874;SDS011;53784;52.630;4.896;2023-02-15T03:01:49;65.95;;;16.67;;
66874;SDS011;53784;52.630;4.896;2023-02-15T03:04:15;75.28;;;15.50;;
66874;SDS011;53784;52.630;4.896;2023-02-15T03:09:14;80.82;;;16.50;;
66874;SDS011;53784;52.630;4.896;2023-02-15T03:11:41;69.70;;;17.05;;
66874;SDS011;53784;52.630;4.896;2023-02-15T03:14:07;67.90;;;16.90;;
66874;SDS011;53784;52.630;4.896;2023-02-15T03:16:32;66.95;;;16.73;;
66874;SDS011;53784;52.630;4.896;2023-02-15T03:27:02;64.13;;;16.10;;
66874;SDS011;53784;52.630;4.896;2023-02-15T03:29:28;54.85;;;15.93;;
66874;SDS011;53784;52.630;4.896;2023-02-15T03:31:56;49.00;;;15.57;;
66874;SDS011;53784;52.630;4.896;2023-02-15T03:34:23;69.75;;;16.38;;
66874;SDS011;53784;52.630;4.896;2023-02-15T03:36:52;83.07;;;17.63;;
66874;SDS011;53784;52.630;4.896;2023-02-15T03:39:30;71.57;;;17.65;;
66874;SDS011;53784;52.630;4.896;2023-02-15T03:47:28;69.03;;;16.35;;
66874;SDS011;53784;52.630;4.896;2023-02-15T03:50:00;75.67;;;16.20;;
66874;SDS011;53784;52.630;4.896;2023-02-15T03:54:51;67.32;;;15.30;;
66874;SDS011;53784;52.630;4.896;2023-02-15T03:57:21;68.80;;;16.17;;
66874;SDS011;53784;52.630;4.896;2023-02-15T04:00:09;69.75;;;15.85;;
66874;SDS011;53784;52.630;4.896;2023-02-15T04:05:33;53.50;;;15.30;;
66874;SDS011;53784;52.630;4.896;2023-02-15T04:07:59;49.50;;;15.87;;
66874;SDS011;53784;52.630;4.896;2023-02-15T04:10:24;43.97;;;15.40;;
66874;SDS011;53784;52.630;4.896;2023-02-15T04:13:08;42.47;;;15.07;;
66874;SDS011;53784;52.630;4.896;2023-02-15T04:15:33;43.70;;;15.80;;
66874;SDS011;53784;52.630;4.896;2023-02-15T04:18:16;33.47;;;14.80;;
66874;SDS011;53784;52.630;4.896;2023-02-15T04:20:45;30.07;;;14.97;;
66874;SDS011;53784;52.630;4.896;2023-02-15T04:23:29;30.67;;;14.48;;
66874;SDS011;53784;52.630;4.896;2023-02-15T04:26:13;28.35;;;15.30;;
66874;SDS011;53784;52.630;4.896;2023-02-15T04:28:38;26.67;;;14.43;;
66874;SDS011;53784;52.630;4.896;2023-02-15T04:31:03;35.87;;;15.00;;
66874;SDS011;53784;52.630;4.896;2023-02-15T04:33:28;39.07;;;14.90;;
66874;SDS011;53784;52.630;4.896;2023-02-15T04:35:54;27.58;;;14.77;;
66874;SDS011;53784;52.630;4.896;2023-02-15T04:38:19;56.08;;;15.07;;
66874;SDS011;53784;52.630;4.896;2023-02-15T04:40:48;42.60;;;15.43;;
66874;SDS011;53784;52.630;4.896;2023-02-15T04:43:14;34.58;;;14.95;;
66874;SDS011;53784;52.630;4.896;2023-02-15T04:45:39;41.80;;;16.10;;
66874;SDS011;53784;52.630;4.896;2023-02-15T04:48:04;32.42;;;15.70;;
66874;SDS011;53784;52.630;4.896;2023-02-15T04:50:29;29.42;;;14.95;;
66874;SDS011;53784;52.630;4.896;2023-02-15T04:52:54;57.53;;;15.60;;
66874;SDS011;53784;52.630;4.896;2023-02-15T04:55:19;28.10;;;15.43;;
66874;SDS011;53784;52.630;4.896;2023-02-15T04:57:45;28.83;;;15.75;;
66874;SDS011;53784;52.630;4.896;2023-02-15T05:00:11;27.90;;;15.68;;
66874;SDS011;53784;52.630;4.896;2023-02-15T05:02:36;27.95;;;15.45;;
66874;SDS011;53784;52.630;4.896;2023-02-15T05:05:01;30.85;;;15.80;;
66874;SDS011;53784;52.630;4.896;2023-02-15T05:07:27;28.13;;;16.25;;
66874;SDS011;53784;52.630;4.896;2023-02-15T05:09:52;27.87;;;14.97;;
66874;SDS011;53784;52.630;4.896;2023-02-15T05:12:17;27.73;;;16.05;;
66874;SDS011;53784;52.630;4.896;2023-02-15T05:14:42;27.17;;;15.60;;
66874;SDS011;53784;52.630;4.896;2023-02-15T05:17:07;29.43;;;15.90;;
66874;SDS011;53784;52.630;4.896;2023-02-15T05:19:32;31.73;;;16.42;;
66874;SDS011;53784;52.630;4.896;2023-02-15T05:21:58;30.73;;;15.73;;
66874;SDS011;53784;52.630;4.896;2023-02-15T05:24:23;34.33;;;17.08;;
66874;SDS011;53784;52.630;4.896;2023-02-15T05:27:09;31.60;;;16.52;;
66874;SDS011;53784;52.630;4.896;2023-02-15T05:29:53;32.72;;;16.60;;
66874;SDS011;53784;52.630;4.896;2023-02-15T05:32:18;35.47;;;16.67;;
66874;SDS011;53784;52.630;4.896;2023-02-15T05:34:44;33.33;;;16.93;;
66874;SDS011;53784;52.630;4.896;2023-02-15T05:37:09;33.93;;;16.67;;
66874;SDS011;53784;52.630;4.896;2023-02-15T05:39:34;34.80;;;16.53;;
66874;SDS011;53784;52.630;4.896;2023-02-15T05:41:59;33.20;;;16.93;;
66874;SDS011;53784;52.630;4.896;2023-02-15T05:44:25;32.33;;;15.88;;
66874;SDS011;53784;52.630;4.896;2023-02-15T05:46:50;33.08;;;15.82;;
66874;SDS011;53784;52.630;4.896;2023-02-15T05:49:15;33.83;;;17.05;;
66874;SDS011;53784;52.630;4.896;2023-02-15T05:51:40;33.72;;;16.77;;
66874;SDS011;53784;52.630;4.896;2023-02-15T05:54:05;33.43;;;16.13;;
66874;SDS011;53784;52.630;4.896;2023-02-15T05:56:30;33.37;;;16.73;;
66874;SDS011;53784;52.630;4.896;2023-02-15T05:58:56;36.40;;;17.73;;
66874;SDS011;53784;52.630;4.896;2023-02-15T06:01:21;33.63;;;17.40;;
66874;SDS011;53784;52.630;4.896;2023-02-15T06:03:47;35.17;;;17.48;;
66874;SDS011;53784;52.630;4.896;2023-02-15T06:06:13;36.03;;;17.93;;
66874;SDS011;53784;52.630;4.896;2023-02-15T06:08:38;39.22;;;17.67;;
66874;SDS011;53784;52.630;4.896;2023-02-15T06:11:03;36.17;;;18.40;;
66874;SDS011;53784;52.630;4.896;2023-02-15T06:13:29;38.67;;;17.92;;
66874;SDS011;53784;52.630;4.896;2023-02-15T06:15:54;39.85;;;19.02;;
66874;SDS011;53784;52.630;4.896;2023-02-15T06:18:19;43.17;;;19.50;;
66874;SDS011;53784;52.630;4.896;2023-02-15T06:20:45;42.30;;;19.80;;
66874;SDS011;53784;52.630;4.896;2023-02-15T06:23:10;42.65;;;18.27;;
66874;SDS011;53784;52.630;4.896;2023-02-15T06:25:35;44.07;;;19.57;;
66874;SDS011;53784;52.630;4.896;2023-02-15T06:28:01;39.23;;;18.60;;
66874;SDS011;53784;52.630;4.896;2023-02-15T06:30:26;38.97;;;18.30;;
66874;SDS011;53784;52.630;4.896;2023-02-15T06:32:51;39.00;;;18.30;;
66874;SDS011;53784;52.630;4.896;2023-02-15T06:35:16;39.30;;;18.23;;
66874;SDS011;53784;52.630;4.896;2023-02-15T06:37:41;94.67;;;19.23;;
66874;SDS011;53784;52.630;4.896;2023-02-15T06:40:07;37.70;;;18.30;;
66874;SDS011;53784;52.630;4.896;2023-02-15T06:42:33;42.25;;;18.55;;
66874;SDS011;53784;52.630;4.896;2023-02-15T06:44:58;45.35;;;19.95;;
66874;SDS011;53784;52.630;4.896;2023-02-15T06:47:25;48.42;;;20.45;;
66874;SDS011;53784;52.630;4.896;2023-02-15T06:49:50;46.73;;;20.17;;
66874;SDS011;53784;52.630;4.896;2023-02-15T06:52:15;41.67;;;19.17;;
66874;SDS011;53784;52.630;4.896;2023-02-15T06:54:40;43.73;;;18.83;;
66874;SDS011;53784;52.630;4.896;2023-02-15T06:57:05;42.95;;;19.13;;
66874;SDS011;53784;52.630;4.896;2023-02-15T06:59:31;49.55;;;20.77;;
66874;SDS011;53784;52.630;4.896;2023-02-15T07:01:56;53.43;;;22.33;;
66874;SDS011;53784;52.630;4.896;2023-02-15T07:04:21;44.10;;;18.48;;
66874;SDS011;53784;52.630;4.896;2023-02-15T07:06:46;48.20;;;20.13;;
66874;SDS011;53784;52.630;4.896;2023-02-15T07:09:12;46.97;;;20.23;;
66874;SDS011;53784;52.630;4.896;2023-02-15T07:11:37;46.53;;;20.23;;
66874;SDS011;53784;52.630;4.896;2023-02-15T07:14:21;43.75;;;19.45;;
66874;SDS011;53784;52.630;4.896;2023-02-15T07:16:46;42.67;;;18.98;;
66874;SDS011;53784;52.630;4.896;2023-02-15T07:19:11;41.97;;;19.10;;
66874;SDS011;53784;52.630;4.896;2023-02-15T07:21:37;47.20;;;20.30;;
66874;SDS011;53784;52.630;4.896;2023-02-15T07:24:02;46.00;;;20.60;;
66874;SDS011;53784;52.630;4.896;2023-02-15T07:26:27;42.85;;;19.95;;
66874;SDS011;53784;52.630;4.896;2023-02-15T07:28:52;46.90;;;19.70;;
66874;SDS011;53784;52.630;4.896;2023-02-15T07:31:17;45.53;;;20.47;;
66874;SDS011;53784;52.630;4.896;2023-02-15T07:33:43;46.10;;;19.38;;
66874;SDS011;53784;52.630;4.896;2023-02-15T07:36:08;42.93;;;19.77;;
66874;SDS011;53784;52.630;4.896;2023-02-15T07:38:37;44.92;;;20.25;;
66874;SDS011;53784;52.630;4.896;2023-02-15T07:41:03;45.17;;;19.98;;
66874;SDS011;53784;52.630;4.896;2023-02-15T07:43:29;40.53;;;18.73;;
66874;SDS011;53784;52.630;4.896;2023-02-15T07:45:59;42.17;;;19.40;;
66874;SDS011;53784;52.630;4.896;2023-02-15T07:48:24;45.97;;;19.63;;
66874;SDS011;53784;52.630;4.896;2023-02-15T07:50:50;41.23;;;19.30;;
66874;SDS011;53784;52.630;4.896;2023-02-15T07:53:15;44.47;;;19.60;;
66874;SDS011;53784;52.630;4.896;2023-02-15T07:55:40;42.43;;;19.03;;
66874;SDS011;53784;52.630;4.896;2023-02-15T07:58:05;42.00;;;19.50;;
66874;SDS011;53784;52.630;4.896;2023-02-15T08:00:30;42.57;;;19.83;;
66874;SDS011;53784;52.630;4.896;2023-02-15T08:03:17;41.92;;;19.23;;
66874;SDS011;53784;52.630;4.896;2023-02-15T08:05:44;39.30;;;19.13;;
66874;SDS011;53784;52.630;4.896;2023-02-15T08:08:10;42.25;;;18.73;;
66874;SDS011;53784;52.630;4.896;2023-02-15T08:10:58;40.13;;;18.52;;
66874;SDS011;53784;52.630;4.896;2023-02-15T08:13:42;39.15;;;19.23;;
66874;SDS011;53784;52.630;4.896;2023-02-15T08:16:18;41.35;;;18.63;;
66874;SDS011;53784;52.630;4.896;2023-02-15T08:18:43;40.40;;;18.60;;
66874;SDS011;53784;52.630;4.896;2023-02-15T08:21:08;36.50;;;17.87;;
66874;SDS011;53784;52.630;4.896;2023-02-15T08:23:34;37.60;;;18.30;;
66874;SDS011;53784;52.630;4.896;2023-02-15T08:25:59;39.22;;;18.48;;
66874;SDS011;53784;52.630;4.896;2023-02-15T08:28:24;38.38;;;18.13;;
66874;SDS011;53784;52.630;4.896;2023-02-15T08:30:50;38.27;;;18.93;;
66874;SDS011;53784;52.630;4.896;2023-02-15T08:33:15;36.30;;;17.98;;
66874;SDS011;53784;52.630;4.896;2023-02-15T08:35:42;36.83;;;18.23;;
66874;SDS011;53784;52.630;4.896;2023-02-15T08:38:07;35.73;;;18.27;;
66874;SDS011;53784;52.630;4.896;2023-02-15T08:40:33;34.20;;;17.75;;
66874;SDS011;53784;52.630;4.896;2023-02-15T08:42:59;37.95;;;18.33;;
66874;SDS011;53784;52.630;4.896;2023-02-15T08:45:24;37.37;;;18.23;;
66874;SDS011;53784;52.630;4.896;2023-02-15T08:47:50;36.78;;;18.60;;
66874;SDS011;53784;52.630;4.896;2023-02-15T08:50:15;32.23;;;17.77;;
66874;SDS011;53784;52.630;4.896;2023-02-15T08:52:40;34.17;;;17.23;;
66874;SDS011;53784;52.630;4.896;2023-02-15T08:55:05;37.40;;;18.83;;
66874;SDS011;53784;52.630;4.896;2023-02-15T08:57:31;33.13;;;17.52;;
66874;SDS011;53784;52.630;4.896;2023-02-15T08:59:56;33.83;;;17.93;;
66874;SDS011;53784;52.630;4.896;2023-02-15T09:02:21;33.33;;;17.87;;
66874;SDS011;53784;52.630;4.896;2023-02-15T09:04:46;34.27;;;17.63;;
66874;SDS011;53784;52.630;4.896;2023-02-15T09:07:11;32.72;;;18.25;;
66874;SDS011;53784;52.630;4.896;2023-02-15T09:09:37;31.60;;;18.35;;
66874;SDS011;53784;52.630;4.896;2023-02-15T09:12:02;29.37;;;17.83;;
66874;SDS011;53784;52.630;4.896;2023-02-15T09:14:27;31.58;;;18.60;;
66874;SDS011;53784;52.630;4.896;2023-02-15T09:16:53;30.92;;;18.70;;
66874;SDS011;53784;52.630;4.896;2023-02-15T09:19:18;36.13;;;19.40;;
66874;SDS011;53784;52.630;4.896;2023-02-15T09:21:44;36.33;;;19.98;;
66874;SDS011;53784;52.630;4.896;2023-02-15T09:24:10;33.03;;;19.17;;
66874;SDS011;53784;52.630;4.896;2023-02-15T09:26:37;34.17;;;19.92;;
66874;SDS011;53784;52.630;4.896;2023-02-15T09:29:02;33.50;;;19.30;;
66874;SDS011;53784;52.630;4.896;2023-02-15T09:31:32;34.83;;;20.08;;
66874;SDS011;53784;52.630;4.896;2023-02-15T09:33:59;33.40;;;19.75;;
66874;SDS011;53784;52.630;4.896;2023-02-15T09:36:32;33.65;;;19.83;;
66874;SDS011;53784;52.630;4.896;2023-02-15T09:39:04;33.17;;;19.83;;
66874;SDS011;53784;52.630;4.896;2023-02-15T09:41:44;32.13;;;19.80;;
66874;SDS011;53784;52.630;4.896;2023-02-15T09:44:34;32.47;;;20.17;;
66874;SDS011;53784;52.630;4.896;2023-02-15T09:49:53;33.97;;;20.45;;
66874;SDS011;53784;52.630;4.896;2023-02-15T09:58:07;37.10;;;23.27;;
66874;SDS011;53784;52.630;4.896;2023-02-15T10:18:11;36.10;;;23.10;;
66874;SDS011;53784;52.630;4.896;2023-02-15T10:23:20;36.28;;;23.58;;
66874;SDS011;53784;52.630;4.896;2023-02-15T10:25:55;37.03;;;22.88;;
66874;SDS011;53784;52.630;4.896;2023-02-15T10:28:23;37.13;;;23.80;;
66874;SDS011;53784;52.630;4.896;2023-02-15T10:30:52;36.60;;;23.02;;
66874;SDS011;53784;52.630;4.896;2023-02-15T10:48:55;43.13;;;27.17;;
66874;SDS011;53784;52.630;4.896;2023-02-15T10:54:01;42.55;;;26.95;;
66874;SDS011;53784;52.630;4.896;2023-02-15T10:56:36;42.33;;;28.10;;
66874;SDS011;53784;52.630;4.896;2023-02-15T11:01:36;42.63;;;27.17;;
66874;SDS011;53784;52.630;4.896;2023-02-15T11:04:09;42.83;;;28.50;;
66874;SDS011;53784;52.630;4.896;2023-02-15T11:06:37;45.20;;;27.83;;
66874;SDS011;53784;52.630;4.896;2023-02-15T11:09:04;44.67;;;28.65;;
66874;SDS011;53784;52.630;4.896;2023-02-15T11:11:34;45.08;;;27.55;;
66874;SDS011;53784;52.630;4.896;2023-02-15T11:14:02;43.85;;;27.98;;
66874;SDS011;53784;52.630;4.896;2023-02-15T11:16:29;45.55;;;28.15;;
66874;SDS011;53784;52.630;4.896;2023-02-15T11:19:04;49.88;;;28.98;;
66874;SDS011;53784;52.630;4.896;2023-02-15T11:21:37;49.35;;;29.77;;
66874;SDS011;53784;52.630;4.896;2023-02-15T11:24:14;54.42;;;29.45;;
66874;SDS011;53784;52.630;4.896;2023-02-15T11:26:43;51.05;;;30.25;;
66874;SDS011;53784;52.630;4.896;2023-02-15T11:31:45;49.35;;;29.13;;
66874;SDS011;53784;52.630;4.896;2023-02-15T11:34:22;50.70;;;29.67;;
66874;SDS011;53784;52.630;4.896;2023-02-15T11:36:50;51.63;;;30.00;;
66874;SDS011;53784;52.630;4.896;2023-02-15T11:39:17;47.95;;;29.20;;
66874;SDS011;53784;52.630;4.896;2023-02-15T11:41:50;51.72;;;29.95;;
66874;SDS011;53784;52.630;4.896;2023-02-15T11:44:23;49.22;;;28.58;;
66874;SDS011;53784;52.630;4.896;2023-02-15T11:46:50;50.03;;;28.88;;
66874;SDS011;53784;52.630;4.896;2023-02-15T11:49:23;48.97;;;29.05;;
66874;SDS011;53784;52.630;4.896;2023-02-15T11:51:50;47.50;;;29.25;;
66874;SDS011;53784;52.630;4.896;2023-02-15T11:54:18;45.80;;;27.33;;
66874;SDS011;53784;52.630;4.896;2023-02-15T11:56:45;47.88;;;28.52;;
66874;SDS011;53784;52.630;4.896;2023-02-15T11:59:11;44.65;;;27.88;;
66874;SDS011;53784;52.630;4.896;2023-02-15T12:01:39;46.28;;;28.73;;
66874;SDS011;53784;52.630;4.896;2023-02-15T12:04:24;49.28;;;28.70;;
66874;SDS011;53784;52.630;4.896;2023-02-15T12:06:52;52.30;;;29.42;;
66874;SDS011;53784;52.630;4.896;2023-02-15T12:09:35;46.10;;;28.17;;
66874;SDS011;53784;52.630;4.896;2023-02-15T12:14:48;47.17;;;26.88;;
66874;SDS011;53784;52.630;4.896;2023-02-15T12:17:13;48.80;;;27.27;;
66874;SDS011;53784;52.630;4.896;2023-02-15T12:19:40;48.78;;;27.98;;
66874;SDS011;53784;52.630;4.896;2023-02-15T12:22:11;45.90;;;26.55;;
66874;SDS011;53784;52.630;4.896;2023-02-15T12:24:46;47.10;;;26.77;;
66874;SDS011;53784;52.630;4.896;2023-02-15T12:29:41;48.75;;;27.13;;
66874;SDS011;53784;52.630;4.896;2023-02-15T12:32:09;49.05;;;27.02;;
66874;SDS011;53784;52.630;4.896;2023-02-15T12:34:36;44.20;;;26.25;;
66874;SDS011;53784;52.630;4.896;2023-02-15T12:37:09;43.17;;;25.45;;
66874;SDS011;53784;52.630;4.896;2023-02-15T12:39:35;44.03;;;25.48;;
66874;SDS011;53784;52.630;4.896;2023-02-15T12:42:02;43.63;;;25.60;;
66874;SDS011;53784;52.630;4.896;2023-02-15T12:44:34;44.60;;;26.60;;
66874;SDS011;53784;52.630;4.896;2023-02-15T12:49:27;43.33;;;26.30;;
66874;SDS011;53784;52.630;4.896;2023-02-15T12:51:53;44.33;;;27.38;;
66874;SDS011;53784;52.630;4.896;2023-02-15T12:56:47;43.25;;;26.05;;
66874;SDS011;53784;52.630;4.896;2023-02-15T12:59:12;41.57;;;25.67;;
66874;SDS011;53784;52.630;4.896;2023-02-15T13:01:39;42.92;;;26.00;;
66874;SDS011;53784;52.630;4.896;2023-02-15T13:04:05;47.25;;;26.80;;
66874;SDS011;53784;52.630;4.896;2023-02-15T13:06:32;41.42;;;25.70;;
66874;SDS011;53784;52.630;4.896;2023-02-15T13:08:58;44.03;;;26.70;;
66874;SDS011;53784;52.630;4.896;2023-02-15T13:11:30;43.40;;;26.52;;
66874;SDS011;53784;52.630;4.896;2023-02-15T13:14:16;46.42;;;26.65;;
66874;SDS011;53784;52.630;4.896;2023-02-15T13:16:42;42.70;;;26.40;;
66874;SDS011;53784;52.630;4.896;2023-02-15T13:19:18;44.33;;;26.35;;
66874;SDS011;53784;52.630;4.896;2023-02-15T13:21:45;45.97;;;27.63;;
66874;SDS011;53784;52.630;4.896;2023-02-15T13:26:42;45.42;;;27.02;;
66874;SDS011;53784;52.630;4.896;2023-02-15T13:29:43;46.15;;;27.38;;
66874;SDS011;53784;52.630;4.896;2023-02-15T13:32:10;46.10;;;26.85;;
66874;SDS011;53784;52.630;4.896;2023-02-15T13:34:37;45.42;;;27.30;;
66874;SDS011;53784;52.630;4.896;2023-02-15T13:39:46;48.30;;;26.40;;
66874;SDS011;53784;52.630;4.896;2023-02-15T13:42:23;45.35;;;27.25;;
66874;SDS011;53784;52.630;4.896;2023-02-15T13:47:37;44.40;;;25.63;;
66874;SDS011;53784;52.630;4.896;2023-02-15T13:52:41;47.80;;;27.45;;
66874;SDS011;53784;52.630;4.896;2023-02-15T13:55:16;46.85;;;27.63;;
66874;SDS011;53784;52.630;4.896;2023-02-15T14:00:39;48.63;;;27.27;;
66874;SDS011;53784;52.630;4.896;2023-02-15T14:08:21;50.20;;;27.77;;
66874;SDS011;53784;52.630;4.896;2023-02-15T14:13:21;48.00;;;28.15;;
66874;SDS011;53784;52.630;4.896;2023-02-15T14:16:03;48.25;;;27.42;;
66874;SDS011;53784;52.630;4.896;2023-02-15T14:21:17;50.05;;;28.02;;
66874;SDS011;53784;52.630;4.896;2023-02-15T14:29:01;48.83;;;28.13;;
66874;SDS011;53784;52.630;4.896;2023-02-15T14:31:35;51.58;;;28.70;;
66874;SDS011;53784;52.630;4.896;2023-02-15T14:34:02;53.70;;;28.52;;
66874;SDS011;53784;52.630;4.896;2023-02-15T14:36:28;50.58;;;28.15;;
66874;SDS011;53784;52.630;4.896;2023-02-15T14:41:59;52.28;;;28.20;;
66874;SDS011;53784;52.630;4.896;2023-02-15T14:46:58;47.90;;;27.05;;
66874;SDS011;53784;52.630;4.896;2023-02-15T14:49:27;52.47;;;28.20;;
66874;SDS011;53784;52.630;4.896;2023-02-15T14:52:11;52.65;;;28.65;;
66874;SDS011;53784;52.630;4.896;2023-02-15T15:02:12;54.67;;;28.63;;
66874;SDS011;53784;52.630;4.896;2023-02-15T15:07:25;58.03;;;28.90;;
66874;SDS011;53784;52.630;4.896;2023-02-15T15:10:32;53.80;;;29.75;;
66874;SDS011;53784;52.630;4.896;2023-02-15T15:20:40;55.03;;;30.77;;
66874;SDS011;53784;52.630;4.896;2023-02-15T15:25:42;53.40;;;28.83;;
66874;SDS011;53784;52.630;4.896;2023-02-15T15:28:09;55.10;;;29.23;;
66874;SDS011;53784;52.630;4.896;2023-02-15T15:30:54;56.25;;;29.55;;
66874;SDS011;53784;52.630;4.896;2023-02-15T15:33:25;60.40;;;29.23;;
66874;SDS011;53784;52.630;4.896;2023-02-15T15:36:21;58.53;;;29.75;;
66874;SDS011;53784;52.630;4.896;2023-02-15T15:49:28;54.55;;;29.25;;
66874;SDS011;53784;52.630;4.896;2023-02-15T15:51:55;56.40;;;30.42;;
66874;SDS011;53784;52.630;4.896;2023-02-15T15:54:24;57.58;;;29.30;;
66874;SDS011;53784;52.630;4.896;2023-02-15T15:56:55;58.22;;;30.25;;
66874;SDS011;53784;52.630;4.896;2023-02-15T15:59:22;55.50;;;29.90;;
66874;SDS011;53784;52.630;4.896;2023-02-15T16:01:48;64.00;;;30.42;;
66874;SDS011;53784;52.630;4.896;2023-02-15T16:04:14;59.70;;;30.25;;
66874;SDS011;53784;52.630;4.896;2023-02-15T16:06:46;60.05;;;30.30;;
66874;SDS011;53784;52.630;4.896;2023-02-15T16:11:36;61.35;;;29.25;;
66874;SDS011;53784;52.630;4.896;2023-02-15T16:14:08;57.28;;;30.08;;
66874;SDS011;53784;52.630;4.896;2023-02-15T16:16:34;59.17;;;29.35;;
66874;SDS011;53784;52.630;4.896;2023-02-15T16:18:59;53.80;;;29.40;;
66874;SDS011;53784;52.630;4.896;2023-02-15T16:21:28;54.95;;;29.17;;
66874;SDS011;53784;52.630;4.896;2023-02-15T16:23:58;59.92;;;29.70;;
66874;SDS011;53784;52.630;4.896;2023-02-15T16:28:58;59.17;;;29.30;;
66874;SDS011;53784;52.630;4.896;2023-02-15T16:31:24;57.55;;;28.95;;
66874;SDS011;53784;52.630;4.896;2023-02-15T16:33:51;62.47;;;30.63;;
66874;SDS011;53784;52.630;4.896;2023-02-15T16:36:21;58.78;;;28.90;;
66874;SDS011;53784;52.630;4.896;2023-02-15T16:41:13;59.20;;;29.52;;
66874;SDS011;53784;52.630;4.896;2023-02-15T16:43:39;63.70;;;29.10;;
66874;SDS011;53784;52.630;4.896;2023-02-15T16:46:08;58.20;;;28.65;;
66874;SDS011;53784;52.630;4.896;2023-02-15T16:48:35;58.88;;;28.40;;
66874;SDS011;53784;52.630;4.896;2023-02-15T16:51:03;58.65;;;29.33;;
66874;SDS011;53784;52.630;4.896;2023-02-15T16:53:29;56.75;;;26.73;;
66874;SDS011;53784;52.630;4.896;2023-02-15T16:55:55;54.58;;;26.88;;
66874;SDS011;53784;52.630;4.896;2023-02-15T16:58:23;52.47;;;26.25;;
66874;SDS011;53784;52.630;4.896;2023-02-15T17:00:50;57.00;;;25.92;;
66874;SDS011;53784;52.630;4.896;2023-02-15T17:05:44;46.90;;;24.67;;
66874;SDS011;53784;52.630;4.896;2023-02-15T17:13:25;49.80;;;25.92;;
66874;SDS011;53784;52.630;4.896;2023-02-15T17:21:08;43.88;;;24.65;;
66874;SDS011;53784;52.630;4.896;2023-02-15T17:23:36;47.42;;;25.55;;
66874;SDS011;53784;52.630;4.896;2023-02-15T17:28:44;44.83;;;25.63;;
66874;SDS011;53784;52.630;4.896;2023-02-15T17:31:12;48.22;;;26.58;;
66874;SDS011;53784;52.630;4.896;2023-02-15T17:33:38;47.25;;;26.50;;
66874;SDS011;53784;52.630;4.896;2023-02-15T17:36:05;47.30;;;26.00;;
66874;SDS011;53784;52.630;4.896;2023-02-15T17:38:30;50.35;;;26.08;;
66874;SDS011;53784;52.630;4.896;2023-02-15T17:40:56;48.03;;;25.88;;
66874;SDS011;53784;52.630;4.896;2023-02-15T17:43:23;49.28;;;26.35;;
66874;SDS011;53784;52.630;4.896;2023-02-15T17:45:48;53.28;;;26.42;;
66874;SDS011;53784;52.630;4.896;2023-02-15T17:48:22;46.33;;;25.40;;